Time;durP1;ratioP1;P1;durP2;ratioP2;P2;SDS_P1;SDS_P2;PMS_P1;PMS_P2;Temp;Humidity;BMP_temperature;BMP_pressure;BME280_temperature;BME280_humidity;BME280_pressure;Samples;Min_cycle;Max_cycle;Signal;HPM_P1;HPM_P2
2023/01/24 00:00:43;;;;;;;14.60;4.60;;;;;;;-1.04;76.71;101713.41;5081015;28;20036;-59
2023/01/24 00:03:12;;;;;;;16.40;6.20;;;;;;;-1.00;76.97;101719.53;5075601;28;20040;-57
2023/01/24 00:05:43;;;;;;;12.55;4.90;;;;;;;-0.99;76.68;101711.94;5077649;28;20423;-55
2023/01/24 00:08:12;;;;;;;14.27;5.43;;;;;;;-0.97;76.83;101718.00;5083395;28;20080;-54
2023/01/24 00:10:38;;;;;;;12.25;4.53;;;;;;;-0.94;76.71;101714.69;5074654;28;20044;-52
2023/01/24 00:13:05;;;;;;;19.92;5.38;;;;;;;-0.93;76.55;101724.09;5071953;28;20419;-56
2023/01/24 00:15:31;;;;;;;9.15;4.57;;;;;;;-0.91;76.47;101715.72;5088656;28;20047;-55
2023/01/24 00:17:57;;;;;;;11.35;4.68;;;;;;;-0.93;76.54;101714.75;5080631;28;20077;-53
2023/01/24 00:20:23;;;;;;;10.77;4.07;;;;;;;-0.86;76.57;101709.13;5088913;28;20036;-56
2023/01/24 00:22:49;;;;;;;12.73;4.07;;;;;;;-0.81;76.64;101714.44;5083684;28;20093;-55
2023/01/24 00:25:15;;;;;;;13.52;5.32;;;;;;;-0.84;76.19;101711.75;5070866;28;20431;-56
2023/01/24 00:27:41;;;;;;;13.70;5.50;;;;;;;-0.79;76.11;101709.41;5070363;28;20051;-57
2023/01/24 00:30:08;;;;;;;7.32;3.70;;;;;;;-0.82;76.02;101704.16;5072742;28;20052;-54
2023/01/24 00:32:34;;;;;;;12.02;5.05;;;;;;;-0.86;76.22;101710.81;5082581;28;20039;-51
2023/01/24 00:35:00;;;;;;;17.98;6.18;;;;;;;-0.79;76.38;101709.41;5093301;28;20553;-55
2023/01/24 00:37:27;;;;;;;17.08;4.57;;;;;;;-0.79;76.11;101694.09;5089084;28;20154;-56
2023/01/24 00:39:52;;;;;;;12.98;5.90;;;;;;;-0.75;75.97;101703.63;5085098;28;20045;-55
2023/01/24 00:42:18;;;;;;;17.50;6.10;;;;;;;-0.74;75.72;101696.03;5076311;28;20059;-54
2023/01/24 00:44:44;;;;;;;18.05;5.78;;;;;;;-0.62;76.19;101699.09;5086016;28;20052;-57
2023/01/24 00:47:10;;;;;;;12.90;5.32;;;;;;;-0.74;75.57;101675.59;5088253;28;20048;-54
2023/01/24 00:49:36;;;;;;;13.00;5.53;;;;;;;-0.65;75.61;101703.22;5079115;28;20093;-55
2023/01/24 00:52:02;;;;;;;13.82;5.18;;;;;;;-0.94;75.61;101654.28;5067970;28;20047;-53
2023/01/24 00:54:28;;;;;;;14.50;4.95;;;;;;;-0.71;75.87;101692.72;5076641;28;20519;-55
2023/01/24 00:56:54;;;;;;;12.85;5.38;;;;;;;-0.76;75.63;101694.22;5076487;28;20044;-54
2023/01/24 00:59:20;;;;;;;12.23;4.35;;;;;;;-1.13;76.12;101625.34;5076966;28;20040;-50
2023/01/24 01:01:46;;;;;;;18.00;5.35;;;;;;;-0.95;75.91;101644.91;5080904;28;20428;-56
2023/01/24 01:04:12;;;;;;;10.98;4.93;;;;;;;-0.70;76.26;101679.16;5081387;28;20058;-54
2023/01/24 01:06:38;;;;;;;12.57;5.35;;;;;;;-0.67;75.89;101675.03;5073285;28;20127;-53
2023/01/24 01:09:04;;;;;;;14.25;4.78;;;;;;;-0.76;75.54;101674.66;5069855;28;20045;-56
2023/01/24 01:11:30;;;;;;;15.00;5.75;;;;;;;-0.98;75.85;101636.22;5085883;28;20040;-57
2023/01/24 01:13:58;;;;;;;12.73;4.05;;;;;;;-0.81;76.10;101668.47;5084253;28;20097;-55
2023/01/24 01:16:24;;;;;;;11.02;4.60;;;;;;;-0.77;75.85;101677.13;5068997;28;20044;-57
2023/01/24 01:18:54;;;;;;;12.10;5.00;;;;;;;-0.72;76.16;101667.97;5087655;28;20081;-55
2023/01/24 01:21:21;;;;;;;11.25;4.72;;;;;;;-0.67;76.05;101667.38;5085008;28;20044;-52
2023/01/24 01:23:47;;;;;;;14.75;5.85;;;;;;;-0.88;75.75;101640.91;5086757;28;20041;-51
2023/01/24 01:26:15;;;;;;;11.23;4.43;;;;;;;-1.02;75.71;101611.38;5073408;28;20076;-54
2023/01/24 01:28:42;;;;;;;10.68;4.13;;;;;;;-0.69;75.86;101670.69;5067967;28;20577;-55
2023/01/24 01:31:07;;;;;;;10.35;4.50;;;;;;;-0.79;75.51;101661.75;5074163;28;20094;-53
2023/01/24 01:33:33;;;;;;;13.73;4.78;;;;;;;-1.13;75.73;101600.72;5075163;28;20468;-55
2023/01/24 01:35:59;;;;;;;10.13;3.90;;;;;;;-0.82;76.16;101664.16;5059477;28;20086;-55
2023/01/24 01:38:27;;;;;;;11.50;5.47;;;;;;;-0.81;76.27;101654.84;5064712;28;20477;-55
2023/01/24 01:40:54;;;;;;;8.75;3.35;;;;;;;-0.81;76.20;101653.16;5065628;28;20067;-58
2023/01/24 01:43:22;;;;;;;11.18;4.38;;;;;;;-0.85;76.11;101656.38;5086923;28;20078;-57
2023/01/24 01:45:53;;;;;;;12.77;5.22;;;;;;;-0.81;76.33;101650.59;5080981;28;20048;-55
2023/01/24 01:48:52;;;;;;;11.38;4.95;;;;;;;-0.75;76.32;101661.09;5079813;28;20051;-56
2023/01/24 01:51:24;;;;;;;13.27;5.05;;;;;;;-0.74;76.25;101660.28;5077957;28;20050;-56
2023/01/24 01:54:09;;;;;;;11.15;4.22;;;;;;;-0.76;76.27;101658.44;5085839;28;20790;-56
2023/01/24 01:56:41;;;;;;;13.93;5.55;;;;;;;-0.70;76.15;101657.03;5082615;28;20044;-55
2023/01/24 01:59:31;;;;;;;15.60;4.95;;;;;;;-0.85;76.18;101630.84;5067640;28;20047;-58
2023/01/24 02:01:58;;;;;;;16.23;4.65;;;;;;;-0.58;75.89;101657.56;5062097;28;20044;-54
2023/01/24 02:04:33;;;;;;;10.10;3.83;;;;;;;-0.67;75.46;101658.84;5083771;28;20487;-53
2023/01/24 02:07:06;;;;;;;9.98;4.43;;;;;;;-0.74;75.92;101660.28;5085420;28;20088;-56
2023/01/24 02:09:44;;;;;;;8.63;3.92;;;;;;;-0.79;75.86;101671.97;5072199;28;20046;-55
2023/01/24 02:12:12;;;;;;;8.77;3.55;;;;;;;-0.81;76.09;101668.47;5079809;28;20462;-57
2023/01/24 02:17:23;;;;;;;12.15;4.35;;;;;;;-0.70;75.99;101658.72;5077851;28;20047;-56
2023/01/24 02:20:19;;;;;;;14.10;4.38;;;;;;;-0.62;75.54;101657.34;5084258;28;20064;-56
2023/01/24 02:23:02;;;;;;;11.77;4.45;;;;;;;-0.69;76.11;101656.25;5076864;28;20127;-54
2023/01/24 02:25:43;;;;;;;14.60;5.10;;;;;;;-0.95;75.81;101598.09;5081881;28;20063;-55
2023/01/24 02:28:09;;;;;;;7.95;3.60;;;;;;;-0.62;75.88;101657.34;5093033;28;20415;-53
2023/01/24 02:30:37;;;;;;;13.65;4.32;;;;;;;-0.64;75.88;101664.97;5086617;28;20123;-56
2023/01/24 02:33:14;;;;;;;9.55;4.03;;;;;;;-0.57;75.81;101663.53;5066329;28;20048;-55
2023/01/24 02:35:40;;;;;;;14.82;5.05;;;;;;;-0.56;75.80;101655.94;5076599;28;20155;-53
2023/01/24 02:38:21;;;;;;;6.25;3.22;;;;;;;-0.51;75.79;101654.44;5069806;28;20083;-54
2023/01/24 02:40:49;;;;;;;12.80;4.45;;;;;;;-0.57;75.66;101651.63;5063420;28;20044;-58
2023/01/24 02:43:16;;;;;;;13.30;4.83;;;;;;;-0.54;75.48;101646.66;5076242;28;20065;-57
2023/01/24 02:45:42;;;;;;;11.88;4.40;;;;;;;-0.61;75.45;101626.78;5075435;28;20039;-53
2023/01/24 02:48:09;;;;;;;11.70;3.85;;;;;;;-0.38;75.35;101649.84;5082420;28;20534;-57
2023/01/24 02:53:29;;;;;;;10.00;4.55;;;;;;;-0.84;75.05;101579.00;5086499;28;20043;-51
2023/01/24 02:58:41;;;;;;;8.18;3.38;;;;;;;-0.47;75.16;101633.31;5078406;28;20584;-55
2023/01/24 03:01:07;;;;;;;12.80;4.53;;;;;;;-0.49;75.24;101637.50;5086362;28;20469;-51
2023/01/24 03:03:33;;;;;;;9.98;4.07;;;;;;;-0.59;75.26;101611.53;5088614;28;20039;-57
2023/01/24 03:06:00;;;;;;;8.55;3.55;;;;;;;-0.53;75.55;101619.44;5066619;28;20071;-54
2023/01/24 03:08:33;;;;;;;9.23;3.80;;;;;;;-0.52;75.30;101622.03;5066996;28;20064;-58
2023/01/24 03:11:01;;;;;;;11.68;4.43;;;;;;;-0.47;75.53;101620.53;5089797;28;20542;-56
2023/01/24 03:35:31;;;;;;;11.15;4.30;;;;;;;-0.57;75.31;101607.31;5085461;28;20036;-56
2023/01/24 03:40:42;;;;;;;13.73;4.45;;;;;;;-0.68;75.93;101593.25;5088420;28;20180;-57
2023/01/24 03:43:08;;;;;;;11.80;4.38;;;;;;;-0.77;76.06;101592.84;5076409;28;20040;-56
2023/01/24 03:45:39;;;;;;;8.43;3.22;;;;;;;-0.88;76.46;101597.50;5054674;28;20059;-56
2023/01/24 03:48:15;;;;;;;9.38;4.32;;;;;;;-0.99;76.64;101584.28;5072675;28;20045;-54
2023/01/24 03:53:31;;;;;;;10.38;3.88;;;;;;;-1.03;77.34;101591.75;5088422;28;20075;-58
2023/01/24 03:56:00;;;;;;;11.75;4.03;;;;;;;-1.07;77.32;101590.78;5089492;28;20122;-57
2023/01/24 03:58:31;;;;;;;8.73;3.72;;;;;;;-1.07;77.49;101603.53;5072325;28;20040;-56
2023/01/24 04:00:57;;;;;;;8.15;3.25;;;;;;;-1.10;78.00;101593.16;5079544;28;20044;-59
2023/01/24 04:03:43;;;;;;;10.73;3.78;;;;;;;-1.07;78.09;101590.78;5082897;28;20044;-57
2023/01/24 04:06:10;;;;;;;11.05;3.75;;;;;;;-1.04;78.15;101595.13;5077028;28;20531;-55
2023/01/24 04:08:36;;;;;;;9.38;3.70;;;;;;;-1.04;78.45;101595.13;5069206;28;20145;-57
2023/01/24 04:11:02;;;;;;;10.85;3.30;;;;;;;-0.99;78.45;101585.97;5073765;28;20435;-52
2023/01/24 04:13:28;;;;;;;7.05;3.28;;;;;;;-1.29;78.49;101529.41;5089035;28;20048;-55
2023/01/24 04:15:56;;;;;;;9.93;4.43;;;;;;;-0.90;78.06;101588.94;5088880;28;20070;-58
2023/01/24 04:18:48;;;;;;;12.35;5.03;;;;;;;-1.03;78.34;101559.44;5082044;28;20048;-56
2023/01/24 04:21:14;;;;;;;10.95;4.05;;;;;;;-0.74;77.94;101593.00;5087396;28;20051;-57
2023/01/24 04:23:40;;;;;;;10.45;3.35;;;;;;;-0.82;77.91;101586.69;5072144;28;20040;-53
2023/01/24 04:26:06;;;;;;;6.28;3.00;;;;;;;-0.87;77.71;101587.38;5086974;28;20071;-58
2023/01/24 04:28:33;;;;;;;8.10;3.55;;;;;;;-0.88;77.83;101582.19;5066693;28;20040;-56
2023/01/24 04:31:02;;;;;;;11.73;3.70;;;;;;;-0.89;78.02;101580.47;5057747;28;20064;-58
2023/01/24 04:33:54;;;;;;;9.00;4.10;;;;;;;-0.79;77.82;101594.50;5064672;28;20079;-62
2023/01/24 04:36:22;;;;;;;7.10;3.83;;;;;;;-0.72;77.81;101583.72;5049688;28;20040;-60
2023/01/24 04:38:48;;;;;;;10.57;4.18;;;;;;;-0.69;77.33;101588.97;5066410;28;20155;-61
2023/01/24 04:41:20;;;;;;;8.45;2.92;;;;;;;-0.75;77.54;101584.47;5044203;28;20048;-56
2023/01/24 04:43:45;;;;;;;7.82;2.50;;;;;;;-1.01;77.49;101551.88;5059937;28;20044;-57
2023/01/24 04:46:12;;;;;;;11.00;3.90;;;;;;;-0.84;77.79;101581.53;5064868;28;20045;-57
2023/01/24 04:48:51;;;;;;;10.88;4.00;;;;;;;-0.96;77.39;101560.59;5032188;28;20115;-56
2023/01/24 04:51:17;;;;;;;12.20;4.25;;;;;;;-0.81;77.72;101578.22;5031295;28;20413;-58
2023/01/24 04:53:45;;;;;;;7.70;3.22;;;;;;;-0.83;77.59;101590.91;5029389;28;20048;-57
2023/01/24 04:56:17;;;;;;;7.05;3.78;;;;;;;-0.89;77.82;101580.47;5065798;28;20055;-54
2023/01/24 04:58:43;;;;;;;8.13;3.10;;;;;;;-0.89;78.09;101583.88;5046498;28;20140;-52
2023/01/24 05:01:09;;;;;;;9.43;4.72;;;;;;;-0.91;78.11;101572.75;5047492;28;20119;-55
2023/01/24 05:03:45;;;;;;;10.77;3.88;;;;;;;-0.86;78.07;101567.81;5058264;28;20059;-58
2023/01/24 05:06:11;;;;;;;7.25;3.88;;;;;;;-0.81;77.68;101575.66;5041926;28;20397;-58
2023/01/24 05:08:37;;;;;;;8.80;3.45;;;;;;;-0.81;77.69;101573.13;5049701;28;20041;-56
2023/01/24 05:11:04;;;;;;;8.55;3.97;;;;;;;-0.74;78.17;101572.56;5071368;28;20151;-59
2023/01/24 05:13:34;;;;;;;9.35;3.97;;;;;;;-0.77;77.92;101575.84;5067661;28;20063;-55
2023/01/24 05:16:02;;;;;;;8.68;3.78;;;;;;;-0.77;77.79;101570.75;5086000;28;20059;-56
2023/01/24 05:18:28;;;;;;;9.57;2.88;;;;;;;-0.82;78.11;101562.03;5084909;28;20036;-56
2023/01/24 05:20:54;;;;;;;9.15;3.50;;;;;;;-1.07;77.97;101524.41;5083082;28;20044;-55
2023/01/24 05:23:20;;;;;;;8.77;3.95;;;;;;;-0.86;78.11;101558.47;5079771;28;20125;-55
2023/01/24 05:25:48;;;;;;;10.10;4.57;;;;;;;-0.86;77.79;101557.59;5067710;28;20044;-57
2023/01/24 05:28:14;;;;;;;10.68;4.32;;;;;;;-1.03;78.12;101533.06;5073255;28;20040;-55
2023/01/24 05:30:43;;;;;;;10.85;3.78;;;;;;;-0.96;77.99;101558.91;5083395;28;20691;-57
2023/01/24 05:33:20;;;;;;;9.57;4.07;;;;;;;-1.01;78.63;101559.53;5076543;28;20405;-55
2023/01/24 05:35:47;;;;;;;11.57;4.32;;;;;;;-1.02;78.83;101565.44;5059003;28;20042;-57
2023/01/24 05:38:13;;;;;;;7.90;3.20;;;;;;;-1.00;78.93;101574.03;5073591;28;20051;-55
2023/01/24 05:40:41;;;;;;;8.23;3.58;;;;;;;-1.05;78.77;101560.22;5077747;28;20093;-55
2023/01/24 05:43:07;;;;;;;14.23;3.78;;;;;;;-0.99;79.15;101557.88;5070274;28;20045;-54
2023/01/24 05:45:34;;;;;;;7.18;3.05;;;;;;;-1.38;79.04;101499.28;5071011;28;20040;-56
2023/01/24 05:48:00;;;;;;;7.25;3.50;;;;;;;-1.17;79.20;101534.16;5061710;28;20039;-56
2023/01/24 05:50:27;;;;;;;7.28;3.80;;;;;;;-1.14;79.24;101555.56;5043239;28;20051;-52
2023/01/24 05:53:09;;;;;;;6.18;2.35;;;;;;;-1.12;79.60;101558.19;5075443;28;20047;-57
2023/01/24 05:55:35;;;;;;;7.20;3.30;;;;;;;-1.17;79.76;101546.91;5082036;28;20040;-56
2023/01/24 05:58:01;;;;;;;7.07;3.25;;;;;;;-1.10;80.16;101561.69;5076503;28;20365;-57
2023/01/24 06:00:39;;;;;;;9.60;3.75;;;;;;;-1.01;79.38;101551.88;5069420;28;20539;-57
2023/01/24 06:03:25;;;;;;;8.43;3.28;;;;;;;-0.96;79.95;101543.59;5072852;28;20048;-54
2023/01/24 06:05:55;;;;;;;10.02;3.55;;;;;;;-0.97;79.45;101541.84;5071988;28;20564;-55
2023/01/24 06:08:22;;;;;;;5.55;2.95;;;;;;;-1.18;79.58;101506.88;5052500;28;20091;-54
2023/01/24 06:10:49;;;;;;;16.42;4.07;;;;;;;-1.01;79.78;101542.53;5067377;28;20489;-54
2023/01/24 06:13:18;;;;;;;8.13;3.88;;;;;;;-0.93;79.70;101545.38;5053573;28;20123;-56
2023/01/24 06:15:45;;;;;;;7.55;3.78;;;;;;;-1.01;79.57;101522.13;5054243;28;20044;-59
2023/01/24 06:18:15;;;;;;;10.32;3.88;;;;;;;-0.80;79.57;101546.78;5041268;28;20047;-59
2023/01/24 06:20:41;;;;;;;7.00;3.47;;;;;;;-0.69;79.14;101545.53;5064916;28;20047;-53
2023/01/24 06:23:10;;;;;;;12.18;3.30;;;;;;;-0.82;78.84;101513.50;5067436;28;20120;-57
2023/01/24 06:25:42;;;;;;;9.00;3.58;;;;;;;-0.65;79.06;101542.28;5052098;28;20486;-54
2023/01/24 06:28:08;;;;;;;8.00;3.05;;;;;;;-0.61;78.67;101542.47;5081598;28;20046;-55
2023/01/24 06:30:34;;;;;;;7.60;3.45;;;;;;;-0.59;78.86;101534.88;5080008;28;20044;-57
2023/01/24 06:33:08;;;;;;;6.78;3.53;;;;;;;-0.69;78.55;101499.56;5077850;28;20051;-52
2023/01/24 06:35:43;;;;;;;8.75;2.80;;;;;;;-0.46;78.09;101532.88;5076411;28;20043;-55
2023/01/24 06:38:21;;;;;;;6.38;2.97;;;;;;;-0.49;78.13;101535.31;5078269;28;20084;-52
2023/01/24 06:40:49;;;;;;;7.32;3.55;;;;;;;-0.54;78.27;101529.16;5077797;28;20081;-57
2023/01/24 06:43:15;;;;;;;7.75;3.17;;;;;;;-0.67;77.98;101505.59;5084028;28;20392;-57
2023/01/24 06:45:41;;;;;;;10.07;4.20;;;;;;;-0.66;78.19;101492.88;5075386;28;20043;-53
2023/01/24 06:48:07;;;;;;;8.05;3.67;;;;;;;-0.39;78.13;101533.13;5085932;28;20044;-55
2023/01/24 06:50:33;;;;;;;7.38;3.35;;;;;;;-0.51;77.79;101508.81;5087726;28;20429;-52
2023/01/24 06:52:59;;;;;;;5.90;3.50;;;;;;;-0.35;77.64;101534.97;5077148;28;20118;-53
2023/01/24 06:55:25;;;;;;;6.93;2.38;;;;;;;-0.35;77.67;101532.41;5067821;28;20045;-53
2023/01/24 06:57:58;;;;;;;6.63;3.10;;;;;;;-0.33;77.57;101541.03;5080608;28;20456;-51
2023/01/24 07:00:25;;;;;;;6.43;3.05;;;;;;;-0.50;77.40;101522.47;5078987;28;20431;-57
2023/01/24 07:02:58;;;;;;;4.90;2.58;;;;;;;-0.35;77.22;101542.63;5079612;28;20032;-54
2023/01/24 07:05:26;;;;;;;7.72;3.83;;;;;;;-0.34;77.18;101540.16;5078992;28;20062;-52
2023/01/24 07:07:51;;;;;;;9.82;3.70;;;;;;;-0.29;77.60;101551.41;5066603;28;20059;-56
2023/01/24 07:10:17;;;;;;;8.45;3.85;;;;;;;-0.39;77.36;101522.88;5088429;28;20044;-59
2023/01/24 07:12:43;;;;;;;7.28;3.55;;;;;;;-0.17;77.10;101554.47;5087325;28;20032;-52
2023/01/24 07:15:09;;;;;;;7.60;3.35;;;;;;;-0.13;76.76;101550.34;5072105;28;20048;-52
2023/01/24 07:17:35;;;;;;;11.00;4.40;;;;;;;-0.23;76.55;101510.78;5092821;28;20486;-55
2023/01/24 07:20:02;;;;;;;9.38;3.63;;;;;;;0.10;76.29;101546.97;5110822;28;20047;-51
2023/01/24 07:22:29;;;;;;;6.28;2.90;;;;;;;0.19;76.30;101544.75;5093268;28;20044;-58
2023/01/24 07:24:55;;;;;;;7.20;3.67;;;;;;;0.26;75.85;101548.41;5090461;28;20156;-55
2023/01/24 07:27:22;;;;;;;7.07;2.92;;;;;;;0.23;75.38;101538.06;5110194;28;20183;-55
2023/01/24 07:29:48;;;;;;;9.20;3.60;;;;;;;0.24;75.58;101547.47;5110990;28;20036;-56
2023/01/24 07:32:14;;;;;;;11.85;4.68;;;;;;;0.13;75.32;101538.53;5109366;28;20511;-54
2023/01/24 07:34:39;;;;;;;6.93;3.08;;;;;;;0.08;75.08;101540.94;5069829;28;20044;-55
2023/01/24 07:37:07;;;;;;;8.70;3.60;;;;;;;-0.04;75.42;101541.31;5069919;28;20127;-56
2023/01/24 07:39:33;;;;;;;8.27;4.10;;;;;;;-0.04;75.66;101538.78;5090016;28;20081;-55
2023/01/24 07:41:59;;;;;;;10.45;4.22;;;;;;;0.03;75.79;101545.00;5081202;28;20051;-57
2023/01/24 07:44:27;;;;;;;14.23;4.28;;;;;;;0.12;75.35;101544.47;5103673;28;20431;-56
2023/01/24 07:46:53;;;;;;;7.70;3.40;;;;;;;0.16;75.52;101546.34;5065588;28;20040;-52
2023/01/24 07:49:19;;;;;;;10.95;3.72;;;;;;;0.11;74.86;101541.03;5084087;28;20064;-58
2023/01/24 07:51:48;;;;;;;7.32;3.20;;;;;;;0.06;75.31;101511.84;5080140;28;20041;-56
2023/01/24 07:54:14;;;;;;;8.38;4.25;;;;;;;0.08;74.84;101507.69;5076228;28;20035;-54
2023/01/24 07:56:40;;;;;;;9.90;4.57;;;;;;;0.16;74.90;101547.19;5079346;28;20428;-55
2023/01/24 07:59:06;;;;;;;8.65;4.07;;;;;;;0.10;74.97;101541.00;5073740;28;20044;-61
2023/01/24 08:01:32;;;;;;;11.43;4.15;;;;;;;0.16;75.20;101538.66;5088600;28;20048;-53
2023/01/24 08:03:58;;;;;;;6.80;3.75;;;;;;;0.06;74.92;101539.97;5075162;28;20514;-54
2023/01/24 08:06:24;;;;;;;9.85;4.18;;;;;;;0.05;75.32;101556.16;5078396;28;20032;-54
2023/01/24 08:08:51;;;;;;;7.80;3.97;;;;;;;0.18;75.38;101544.69;5097072;28;20043;-52
2023/01/24 08:11:17;;;;;;;7.60;3.25;;;;;;;0.17;75.11;101545.50;5083734;28;20241;-51
2023/01/24 08:13:46;;;;;;;8.63;4.20;;;;;;;-0.12;74.71;101516.28;5090027;28;20036;-50
2023/01/24 08:16:13;;;;;;;9.48;4.05;;;;;;;-0.27;75.09;101480.81;5074499;28;20572;-54
2023/01/24 08:18:40;;;;;;;12.50;3.90;;;;;;;-0.14;75.05;101508.56;5058959;28;20139;-55
2023/01/24 08:21:07;;;;;;;8.10;2.95;;;;;;;-0.01;75.13;101538.91;5070395;28;20055;-52
2023/01/24 08:23:33;;;;;;;7.80;3.25;;;;;;;-0.06;75.26;101531.88;5070506;28;20789;-58
2023/01/24 08:26:03;;;;;;;8.38;4.18;;;;;;;-0.18;75.62;101500.72;5089992;28;20073;-52
2023/01/24 08:28:30;;;;;;;7.00;3.97;;;;;;;-0.06;75.52;101503.75;5089221;28;20093;-56
2023/01/24 08:30:57;;;;;;;8.98;3.95;;;;;;;0.26;75.20;101533.06;5089104;28;20555;-55
2023/01/24 08:33:23;;;;;;;9.68;3.67;;;;;;;-0.19;74.70;101464.06;5086669;28;20096;-54
2023/01/24 08:35:49;;;;;;;7.53;4.03;;;;;;;0.00;75.30;101493.75;5071573;28;20059;-60
2023/01/24 08:38:16;;;;;;;8.75;3.70;;;;;;;0.18;74.84;101525.09;5077888;28;20048;-61
2023/01/24 08:40:43;;;;;;;11.95;3.90;;;;;;;0.19;74.79;101503.84;5079168;28;20364;-51
2023/01/24 08:43:09;;;;;;;6.63;3.20;;;;;;;0.27;75.11;101501.53;5079351;28;20059;-56
2023/01/24 08:45:35;;;;;;;9.13;4.22;;;;;;;0.38;74.83;101511.34;5068576;28;20555;-54
2023/01/24 08:48:01;;;;;;;10.07;4.22;;;;;;;0.54;74.44;101505.09;5078111;28;20440;-57
2023/01/24 08:50:27;;;;;;;8.88;4.03;;;;;;;0.61;74.15;101504.50;5091452;28;20825;-53
2023/01/24 08:52:55;;;;;;;6.40;3.13;;;;;;;0.74;73.96;101501.53;5080561;28;20074;-55
2023/01/24 08:55:21;;;;;;;9.32;3.45;;;;;;;0.74;73.58;101498.09;5070190;28;20427;-54
2023/01/24 08:57:47;;;;;;;9.40;3.90;;;;;;;0.61;73.15;101501.94;5064621;28;20084;-57
2023/01/24 09:00:14;;;;;;;10.25;3.85;;;;;;;0.57;73.27;101489.84;5075985;28;20169;-55
2023/01/24 09:02:40;;;;;;;10.50;3.72;;;;;;;0.80;73.29;101501.75;5077699;28;20056;-53
2023/01/24 09:05:07;;;;;;;5.63;2.75;;;;;;;0.66;72.53;101492.72;5081606;28;20117;-53
2023/01/24 09:07:36;;;;;;;8.25;3.85;;;;;;;0.54;72.71;101493.97;5068111;28;20071;-56
2023/01/24 09:10:03;;;;;;;9.18;4.10;;;;;;;0.47;72.98;101489.47;5075623;28;20498;-52
2023/01/24 09:12:31;;;;;;;5.25;3.15;;;;;;;0.54;72.99;101493.97;5088535;28;20040;-57
2023/01/24 09:14:58;;;;;;;8.05;3.47;;;;;;;0.45;72.76;101493.66;5078470;28;20036;-58
2023/01/24 09:17:24;;;;;;;7.70;3.15;;;;;;;0.52;73.08;101488.84;5079445;28;20422;-56
2023/01/24 09:19:50;;;;;;;9.18;4.20;;;;;;;0.31;73.05;101457.38;5085909;28;20040;-61
2023/01/24 09:22:16;;;;;;;8.00;3.75;;;;;;;0.52;72.78;101480.28;5079179;28;20048;-62
2023/01/24 09:24:42;;;;;;;6.38;3.42;;;;;;;0.53;72.56;101476.88;5084770;28;20075;-58
2023/01/24 09:27:10;;;;;;;5.05;2.53;;;;;;;0.53;72.38;101480.31;5067537;28;20055;-59
2023/01/24 09:29:36;;;;;;;7.55;3.58;;;;;;;0.61;72.58;101483.16;5077058;28;20106;-55
2023/01/24 09:32:02;;;;;;;7.35;3.20;;;;;;;0.68;72.69;101480.84;5072514;28;20067;-61
2023/01/24 09:34:28;;;;;;;6.03;3.00;;;;;;;0.80;72.38;101476.13;5072724;28;20055;-60
2023/01/24 09:36:54;;;;;;;6.28;3.40;;;;;;;0.83;72.11;101472.81;5073679;28;20059;-60
2023/01/24 09:39:20;;;;;;;8.40;3.83;;;;;;;0.87;71.79;101484.03;5100458;28;20515;-57
2023/01/24 09:42:05;;;;;;;5.70;3.03;;;;;;;0.98;71.87;101481.00;5089907;28;20181;-62
2023/01/24 09:44:39;;;;;;;5.90;3.15;;;;;;;0.60;71.50;101428.53;5067588;28;20388;-54
2023/01/24 09:47:37;;;;;;;10.98;3.55;;;;;;;0.82;71.59;101478.75;5072327;28;20100;-57
2023/01/24 09:50:04;;;;;;;12.47;3.80;;;;;;;0.83;71.38;101471.13;5067384;28;20048;-64
2023/01/24 09:52:39;;;;;;;8.50;3.95;;;;;;;0.81;71.35;101457.41;5085882;28;20689;-61
2023/01/24 09:55:25;;;;;;;10.82;4.10;;;;;;;0.76;71.61;101455.50;5069702;28;20131;-62
2023/01/24 09:58:26;;;;;;;7.47;3.55;;;;;;;0.79;71.46;101461.59;5086622;28;20059;-57
2023/01/24 10:00:52;;;;;;;8.00;3.70;;;;;;;0.80;71.11;101450.53;5099756;28;20043;-61
2023/01/24 10:03:20;;;;;;;6.65;3.28;;;;;;;0.82;71.18;101448.03;5089762;28;20043;-60
2023/01/24 10:05:49;;;;;;;3.72;2.30;;;;;;;0.80;71.22;101459.91;5064740;28;20577;-60
2023/01/24 10:08:23;;;;;;;7.00;3.42;;;;;;;0.77;71.33;101454.69;5075462;28;20127;-55
2023/01/24 10:11:27;;;;;;;6.57;3.50;;;;;;;0.81;71.46;101444.59;5080107;28;20032;-62
2023/01/24 10:14:25;;;;;;;6.40;3.67;;;;;;;1.00;70.72;101438.38;5077144;28;20058;-59
2023/01/24 10:17:28;;;;;;;7.10;2.97;;;;;;;1.16;70.33;101430.38;5086495;28;20124;-58
2023/01/24 10:20:05;;;;;;;5.53;2.70;;;;;;;1.14;70.40;101415.78;5083718;28;20040;-60
2023/01/24 10:22:37;;;;;;;9.18;3.22;;;;;;;1.26;69.59;101423.84;5070226;28;20039;-58
2023/01/24 10:25:27;;;;;;;7.85;3.45;;;;;;;1.41;69.99;101415.78;5061856;28;20150;-64
2023/01/24 10:27:57;;;;;;;7.38;3.35;;;;;;;1.37;69.36;101404.53;5072962;28;20037;-60
2023/01/24 10:30:29;;;;;;;;;;;;;;;1.39;68.93;101396.91;5066981;28;20040;-60
2023/01/24 10:33:01;;;;;;;7.90;3.75;;;;;;;1.41;69.04;101408.09;5071788;28;19951;-61
2023/01/24 10:35:40;;;;;;;6.97;3.55;;;;;;;1.45;68.94;101391.97;5067954;28;20043;-63
2023/01/24 10:38:09;;;;;;;7.22;3.45;;;;;;;1.38;68.74;101396.03;5074881;28;20104;-62
2023/01/24 10:41:00;;;;;;;7.38;3.17;;;;;;;1.30;69.12;101384.69;5067297;28;20040;-62
2023/01/24 10:43:29;;;;;;;12.13;3.95;;;;;;;1.19;68.82;101369.00;5069090;28;20045;-61
2023/01/24 10:46:04;;;;;;;7.17;2.90;;;;;;;1.33;68.80;101394.16;5052676;28;20052;-58
2023/01/24 10:48:45;;;;;;;6.22;3.03;;;;;;;1.05;68.97;101356.56;5070464;28;20036;-58
2023/01/24 10:51:15;;;;;;;7.03;3.25;;;;;;;1.20;68.79;101383.53;5090770;28;20124;-61
2023/01/24 10:53:41;;;;;;;8.30;3.17;;;;;;;1.03;68.91;101343.75;5066990;28;20071;-60
2023/01/24 10:56:07;;;;;;;8.02;3.35;;;;;;;1.19;68.91;101356.19;5081405;28;20063;-63
2023/01/24 10:59:14;;;;;;;5.70;3.05;;;;;;;1.25;68.88;101358.94;5072692;28;20089;-62
2023/01/24 11:01:44;;;;;;;4.88;2.45;;;;;;;1.31;69.05;101357.38;5063707;28;20127;-61
2023/01/24 11:04:37;;;;;;;5.65;2.33;;;;;;;1.28;68.74;101353.91;5047099;28;20536;-62
2023/01/24 11:07:04;;;;;;;7.10;3.45;;;;;;;1.23;68.71;101337.53;5085302;28;20120;-62
2023/01/24 11:09:34;;;;;;;6.60;3.20;;;;;;;1.33;68.53;101354.03;5081894;28;20048;-63
2023/01/24 11:12:00;;;;;;;7.05;3.58;;;;;;;0.93;68.30;101292.19;5070767;28;20052;-62
2023/01/24 11:14:34;;;;;;;4.63;2.17;;;;;;;1.21;68.74;101348.53;5077321;28;20511;-62
2023/01/24 11:17:01;;;;;;;7.85;3.58;;;;;;;1.17;68.84;101342.44;5092149;28;20036;-62
2023/01/24 11:19:34;;;;;;;7.00;3.70;;;;;;;1.26;68.38;101342.72;5073626;28;20131;-62
2023/01/24 11:22:02;;;;;;;7.13;3.63;;;;;;;1.32;68.57;101343.72;5091008;28;20044;-64
2023/01/24 11:24:29;;;;;;;6.13;2.30;;;;;;;1.35;68.44;101336.16;5084000;28;20052;-61
2023/01/24 11:26:56;;;;;;;9.23;3.20;;;;;;;1.23;68.33;101336.66;5069973;28;20384;-61
2023/01/24 11:29:22;;;;;;;7.05;3.35;;;;;;;1.19;68.59;101333.13;5071716;28;20131;-62
2023/01/24 11:31:51;;;;;;;10.02;3.88;;;;;;;1.16;68.52;101335.59;5073632;28;20072;-63
2023/01/24 11:34:36;;;;;;;6.68;3.28;;;;;;;1.21;68.20;101316.09;5060456;28;20067;-64
2023/01/24 11:37:18;;;;;;;6.90;2.80;;;;;;;1.23;68.40;101326.41;5082586;28;20036;-51
2023/01/24 11:40:09;;;;;;;6.25;2.95;;;;;;;1.04;68.32;101299.38;5077136;28;20100;-54
2023/01/24 11:42:59;;;;;;;7.18;2.88;;;;;;;1.19;68.54;101320.34;5089712;28;20081;-52
2023/01/24 11:45:32;;;;;;;5.35;2.47;;;;;;;1.09;68.73;101323.44;5090083;28;20052;-53
2023/01/24 11:47:58;;;;;;;8.18;3.42;;;;;;;1.09;69.00;101330.25;5084779;28;20048;-52
2023/01/24 11:50:27;;;;;;;7.55;3.55;;;;;;;1.13;68.69;101324.41;5070210;28;20045;-50
2023/01/24 11:53:14;;;;;;;9.23;4.25;;;;;;;0.84;68.55;101259.47;5095827;28;20032;-54
2023/01/24 11:55:59;;;;;;;3.45;1.60;;;;;;;1.23;68.31;101327.28;5079050;28;20036;-51
2023/01/24 11:59:04;;;;;;;8.15;3.63;;;;;;;1.20;68.87;101310.94;5069618;28;20067;-52
2023/01/24 12:02:03;;;;;;;11.15;3.47;;;;;;;1.17;68.93;101301.47;5033140;28;20060;-54
2023/01/24 12:04:50;;;;;;;6.07;3.58;;;;;;;1.21;68.98;101307.53;5054807;28;20050;-53
2023/01/24 12:07:19;;;;;;;4.38;2.42;;;;;;;1.21;68.71;101308.41;5087522;28;20128;-50
2023/01/24 12:10:03;;;;;;;6.60;3.75;;;;;;;1.21;68.79;101292.16;5088319;28;20044;-55
2023/01/24 12:12:37;;;;;;;6.38;3.72;;;;;;;1.22;68.87;101299.03;5086635;28;20215;-50
2023/01/24 12:16:00;;;;;;;11.70;3.90;;;;;;;1.17;68.84;101298.03;5079396;28;20049;-56
2023/01/24 12:18:35;;;;;;;7.47;2.40;;;;;;;1.18;69.12;101286.97;5019189;28;20418;-50